Time;durP1;ratioP1;P1;durP2;ratioP2;P2;SDS_P1;SDS_P2;PMS_P1;PMS_P2;Temp;Humidity;BMP_temperature;BMP_pressure;BME280_temperature;BME280_humidity;BME280_pressure;Samples;Min_cycle;Max_cycle;Signal;HPM_P1;HPM_P2
2022/01/18 00:01:35;;;;;;;8.50;4.28;;;77.30;2227.20;;;;;;5009350;28;20049;-75
2022/01/18 00:04:01;;;;;;;9.90;3.58;;;77.30;2227.20;;;;;;5007805;28;20218;-75
2022/01/18 00:06:27;;;;;;;8.32;3.38;;;77.30;2227.20;;;;;;5006378;28;20412;-75
2022/01/18 00:08:53;;;;;;;7.85;3.35;;;77.30;2227.20;;;;;;4993408;28;20058;-74
2022/01/18 00:11:22;;;;;;;4.60;3.03;;;77.30;2227.20;;;;;;4993253;28;20503;-75
2022/01/18 00:13:56;;;;;;;7.32;3.15;;;77.30;2227.20;;;;;;4994124;28;20041;-75
2022/01/18 00:19:23;;;;;;;6.97;2.75;;;77.30;2227.20;;;;;;4970989;28;20434;-74
2022/01/18 00:24:17;;;;;;;7.40;4.43;;;77.20;2227.20;;;;;;4970334;28;20065;-74
2022/01/18 00:26:43;;;;;;;8.55;3.40;;;77.10;2227.20;;;;;;4971319;28;20067;-74
2022/01/18 00:29:12;;;;;;;5.65;3.60;;;77.10;2227.20;;;;;;4970158;28;20612;-74
2022/01/18 00:31:56;;;;;;;7.07;3.90;;;77.10;2227.20;;;;;;4971118;28;20031;-74
2022/01/18 00:34:29;;;;;;;7.93;3.47;;;77.10;2227.20;;;;;;4954189;28;20038;-74
2022/01/18 00:39:36;;;;;;;7.05;3.45;;;77.10;2227.20;;;;;;4969757;28;20037;-74
2022/01/18 00:42:04;;;;;;;8.10;3.28;;;77.10;2227.20;;;;;;4961050;28;20053;-76
2022/01/18 00:44:29;;;;;;;10.63;3.70;;;77.10;2227.20;;;;;;4969436;28;20046;-74
2022/01/18 00:46:55;;;;;;;9.00;4.07;;;77.10;2227.20;;;;;;4969168;28;20086;-74
2022/01/18 00:49:21;;;;;;;7.45;3.80;;;77.10;2227.20;;;;;;4953353;28;20031;-74
2022/01/18 00:51:54;;;;;;;6.13;3.63;;;77.10;2227.20;;;;;;4953438;28;20038;-74
2022/01/18 00:54:28;;;;;;;6.03;3.10;;;77.10;2227.20;;;;;;4962445;28;20134;-74
2022/01/18 00:56:55;;;;;;;6.75;4.25;;;77.10;2227.20;;;;;;4988868;28;20791;-74
2022/01/18 00:59:22;;;;;;;8.68;3.72;;;77.10;2227.20;;;;;;4990810;28;20746;-73
2022/01/18 01:01:48;;;;;;;6.75;3.80;;;77.00;2227.20;;;;;;4992853;28;20030;-73
2022/01/18 01:04:14;;;;;;;7.35;3.10;;;77.00;2227.20;;;;;;4993021;28;20056;-73
2022/01/18 01:06:40;;;;;;;4.85;2.83;;;77.00;2227.20;;;;;;4992111;28;20034;-73
2022/01/18 01:09:07;;;;;;;5.40;2.60;;;77.00;2227.20;;;;;;5008455;28;20038;-76
2022/01/18 01:11:37;;;;;;;5.30;3.10;;;77.00;2227.20;;;;;;5009423;28;20570;-73
2022/01/18 01:14:05;;;;;;;5.85;3.30;;;77.00;2227.20;;;;;;5002037;28;20777;-73
2022/01/18 01:45:49;;;;;;;4.63;2.85;;;76.80;2227.20;;;;;;5011638;28;20037;-73
2022/01/18 01:48:17;;;;;;;6.88;3.13;;;76.80;2227.20;;;;;;4992484;28;20022;-73
2022/01/18 01:50:49;;;;;;;18.02;3.35;;;76.80;2227.20;;;;;;5006007;28;20435;-73
2022/01/18 01:53:19;;;;;;;4.85;3.17;;;76.80;2227.20;;;;;;5011065;28;20033;-72
2022/01/18 01:55:45;;;;;;;4.88;3.42;;;76.80;2227.20;;;;;;5004316;28;20049;-73
2022/01/18 01:58:11;;;;;;;7.03;3.45;;;52.10;2227.20;;;;;;5007966;28;20140;-73
2022/01/18 02:00:50;;;;;;;6.30;3.33;;;76.80;2227.20;;;;;;5009048;28;20529;-73
2022/01/18 02:03:16;;;;;;;8.48;3.67;;;76.80;2227.20;;;;;;5010889;28;20036;-74
2022/01/18 02:05:42;;;;;;;7.97;3.80;;;76.80;2227.20;;;;;;5001083;28;20040;-72
2022/01/18 02:08:08;;;;;;;7.05;4.22;;;76.80;2227.20;;;;;;4993096;28;20112;-73
2022/01/18 02:10:38;;;;;;;7.88;3.75;;;52.10;2227.20;;;;;;4993826;28;20034;-73
2022/01/18 02:13:05;;;;;;;6.35;4.10;;;52.10;2227.20;;;;;;5009177;28;20101;-73
2022/01/18 02:15:31;;;;;;;10.05;4.68;;;52.10;2227.20;;;;;;5009722;28;20037;-73
2022/01/18 02:23:29;;;;;;;7.00;4.20;;;52.10;2227.20;;;;;;5007915;28;20062;-73
2022/01/18 02:25:55;;;;;;;8.82;4.00;;;52.10;2227.20;;;;;;5010890;28;20069;-72
2022/01/18 02:28:22;;;;;;;6.35;3.58;;;52.10;2227.20;;;;;;5010246;28;20065;-72
2022/01/18 02:30:48;;;;;;;7.35;3.17;;;52.10;2227.20;;;;;;5009290;28;20029;-72
2022/01/18 02:33:15;;;;;;;7.30;3.65;;;52.00;2227.20;;;;;;5008981;28;20157;-72
2022/01/18 02:35:41;;;;;;;9.48;3.70;;;52.00;2227.20;;;;;;5006686;28;20058;-73
2022/01/18 02:38:07;;;;;;;6.43;3.92;;;52.00;2227.20;;;;;;4992859;28;20077;-74
2022/01/18 02:40:34;;;;;;;7.47;4.22;;;52.00;2227.20;;;;;;4987365;28;20061;-73
2022/01/18 02:43:46;;;;;;;5.93;3.60;;;52.00;2227.20;;;;;;4992673;28;20033;-74
2022/01/18 02:45:49;;;;;;;8.32;5.03;;;52.00;2227.20;;;;;;5009589;28;20062;-74
2022/01/18 02:48:15;;;;;;;10.50;5.78;;;52.00;2227.20;;;;;;5011242;28;20065;-73
2022/01/18 02:50:41;;;;;;;6.47;3.85;;;52.00;2227.20;;;;;;5010268;28;20026;-74
2022/01/18 02:53:07;;;;;;;12.32;5.10;;;52.00;2227.20;;;;;;4993491;28;20044;-74
2022/01/18 02:55:32;;;;;;;10.85;5.05;;;51.90;2227.20;;;;;;4992517;28;20038;-74
2022/01/18 02:58:04;;;;;;;10.23;4.43;;;52.00;2227.20;;;;;;5011083;28;20501;-74
2022/01/18 03:00:42;;;;;;;8.45;4.03;;;51.90;2227.20;;;;;;5005075;28;20534;-74
2022/01/18 03:03:16;;;;;;;5.60;3.67;;;51.90;2227.20;;;;;;5008822;28;20057;-73
2022/01/18 03:05:43;;;;;;;10.23;3.90;;;51.90;2227.20;;;;;;5009779;28;20033;-73
2022/01/18 03:08:11;;;;;;;7.22;3.67;;;51.90;2227.20;;;;;;5010499;28;20034;-73
2022/01/18 03:10:39;;;;;;;8.13;4.47;;;51.90;2227.20;;;;;;5006818;28;20057;-73
2022/01/18 03:13:06;;;;;;;9.05;3.22;;;51.90;2227.20;;;;;;5008328;28;20093;-74
2022/01/18 03:15:33;;;;;;;8.55;3.53;;;51.80;2227.20;;;;;;4983175;28;20041;-73
2022/01/18 03:18:00;;;;;;;7.00;3.20;;;51.80;2227.20;;;;;;5007304;28;20029;-74
2022/01/18 03:20:26;;;;;;;6.55;3.53;;;51.80;2227.20;;;;;;4992182;28;20033;-73
2022/01/18 03:22:52;;;;;;;5.22;3.28;;;51.80;2227.20;;;;;;5010899;28;20041;-73
2022/01/18 03:28:05;;;;;;;5.20;3.20;;;51.70;2227.20;;;;;;5007023;28;20061;-73
2022/01/18 03:30:31;;;;;;;5.85;4.13;;;51.70;2227.20;;;;;;5006603;28;20045;-73
2022/01/18 03:32:57;;;;;;;9.07;5.00;;;51.70;2227.20;;;;;;5002764;28;20410;-75
2022/01/18 03:35:23;;;;;;;13.50;5.60;;;51.60;2227.20;;;;;;4993043;28;20022;-74
2022/01/18 03:37:50;;;;;;;7.55;5.40;;;51.60;2227.20;;;;;;5011246;28;20041;-74
2022/01/18 03:40:16;;;;;;;12.45;5.63;;;51.60;2227.20;;;;;;5010642;28;20022;-74
2022/01/18 03:42:43;;;;;;;12.70;4.70;;;51.60;2227.20;;;;;;4995160;28;20104;-74
2022/01/18 03:45:15;;;;;;;9.48;4.68;;;51.50;2227.20;;;;;;5014294;28;20026;-74
2022/01/18 03:47:42;;;;;;;7.43;3.40;;;51.50;2227.20;;;;;;5013667;28;20029;-74
2022/01/18 03:50:10;;;;;;;10.27;4.05;;;51.50;2227.20;;;;;;5014256;28;20100;-73
2022/01/18 03:52:36;;;;;;;6.20;3.42;;;51.50;2227.20;;;;;;5013658;28;20024;-74
2022/01/18 03:55:03;;;;;;;5.50;3.05;;;51.50;2227.20;;;;;;4986722;28;20567;-74
2022/01/18 03:57:29;;;;;;;10.50;3.78;;;51.50;2227.20;;;;;;5004032;28;20052;-74
2022/01/18 03:59:55;;;;;;;9.27;4.60;;;51.50;2227.20;;;;;;4987960;28;20463;-74
2022/01/18 04:02:20;;;;;;;11.00;4.13;;;51.50;2227.20;;;;;;5011783;28;20537;-74
2022/01/18 04:04:46;;;;;;;9.60;4.70;;;51.40;2227.20;;;;;;4996802;28;20073;-74
2022/01/18 04:07:12;;;;;;;10.82;4.30;;;51.40;2227.20;;;;;;5009783;28;20084;-74
2022/01/18 04:09:38;;;;;;;7.80;4.63;;;51.40;2227.20;;;;;;5013581;28;20068;-73
2022/01/18 04:12:04;;;;;;;9.73;4.18;;;51.30;2227.20;;;;;;5013906;28;20034;-74
2022/01/18 04:14:30;;;;;;;10.27;4.35;;;51.30;2227.20;;;;;;4995374;28;20042;-74
2022/01/18 04:17:33;;;;;;;9.05;4.22;;;51.20;2227.20;;;;;;5013924;28;20044;-74
2022/01/18 04:27:48;;;;;;;8.98;4.07;;;51.20;2227.20;;;;;;5012900;28;20088;-74
2022/01/18 04:30:14;;;;;;;11.55;4.43;;;51.20;2227.20;;;;;;4995009;28;20041;-73
2022/01/18 04:32:39;;;;;;;11.50;3.50;;;51.20;2227.20;;;;;;5013247;28;20111;-74
2022/01/18 04:35:05;;;;;;;9.05;3.95;;;51.20;2227.20;;;;;;4995169;28;20058;-74
2022/01/18 04:37:31;;;;;;;7.40;4.00;;;26.50;2201.60;;;;;;5012688;28;20038;-74
2022/01/18 04:39:58;;;;;;;8.88;4.00;;;26.50;2201.60;;;;;;4995794;28;20049;-73
2022/01/18 04:50:37;;;;;;;10.23;5.15;;;26.40;2201.60;;;;;;5010954;28;20507;-73
2022/01/18 04:53:03;;;;;;;8.52;4.20;;;26.40;2201.60;;;;;;5013210;28;20038;-73
2022/01/18 04:55:32;;;;;;;11.35;5.50;;;26.40;2201.60;;;;;;4994425;28;20049;-73
2022/01/18 04:57:58;;;;;;;8.35;3.92;;;26.40;2201.60;;;;;;5010748;28;20038;-73
2022/01/18 05:00:25;;;;;;;11.00;4.82;;;26.40;2201.60;;;;;;4987276;28;20125;-73
2022/01/18 05:02:52;;;;;;;9.25;4.22;;;26.40;2201.60;;;;;;5012519;28;20050;-73
2022/01/18 05:05:24;;;;;;;13.38;4.35;;;26.40;2201.60;;;;;;4989611;28;20046;-73
2022/01/18 05:07:52;;;;;;;10.10;4.28;;;26.30;2201.60;;;;;;4987805;28;20494;-72
2022/01/18 05:10:20;;;;;;;11.23;4.82;;;26.30;2201.60;;;;;;5012818;28;20777;-72
2022/01/18 05:12:49;;;;;;;12.95;4.32;;;26.30;2201.60;;;;;;4994659;28;20041;-72
2022/01/18 05:23:23;;;;;;;46.15;23.00;;;26.10;2201.60;;;;;;4970019;28;20041;-71
2022/01/18 05:25:50;;;;;;;27.55;12.38;;;26.00;2201.60;;;;;;4970493;28;20157;-71
2022/01/18 05:28:15;;;;;;;26.60;14.43;;;26.00;2201.60;;;;;;4969820;28;20027;-71
2022/01/18 05:30:41;;;;;;;40.15;21.35;;;26.00;2201.60;;;;;;4970047;28;20038;-71
2022/01/18 05:33:07;;;;;;;32.15;17.08;;;26.00;2201.60;;;;;;4969666;28;21382;-71
2022/01/18 05:35:34;;;;;;;40.08;17.83;;;26.00;2201.60;;;;;;4956336;28;20387;-71
2022/01/18 05:38:00;;;;;;;27.75;13.43;;;26.00;2201.60;;;;;;4970176;28;20034;-71
2022/01/18 05:40:26;;;;;;;29.55;15.30;;;25.90;2201.60;;;;;;4954745;28;20407;-72
2022/01/18 05:42:52;;;;;;;17.17;7.65;;;25.90;2201.60;;;;;;4957309;28;20035;-71
2022/01/18 05:45:18;;;;;;;31.58;14.32;;;25.90;2201.60;;;;;;4969579;28;20716;-71
2022/01/18 05:47:44;;;;;;;39.88;17.80;;;25.80;2201.60;;;;;;4969688;28;20041;-71
2022/01/18 05:50:11;;;;;;;36.03;18.60;;;25.80;2201.60;;;;;;4969012;28;20039;-71
2022/01/18 05:52:37;;;;;;;29.17;11.55;;;25.80;2201.60;;;;;;4959889;28;20031;-71
2022/01/18 05:55:04;;;;;;;22.45;11.18;;;25.80;2201.60;;;;;;4969385;28;20046;-71
2022/01/18 05:57:33;;;;;;;31.55;14.32;;;25.80;2201.60;;;;;;4974982;28;20072;-72
2022/01/18 06:00:03;;;;;;;32.90;15.48;;;25.80;2201.60;;;;;;5005608;28;20120;-71
2022/01/18 06:02:42;;;;;;;39.75;15.13;;;25.80;2201.60;;;;;;4991743;28;20481;-71
2022/01/18 06:07:54;;;;;;;38.90;16.85;;;25.80;2201.60;;;;;;5005749;28;20129;-71
2022/01/18 06:10:20;;;;;;;30.13;14.35;;;25.80;2201.60;;;;;;4991126;28;20034;-71
2022/01/18 06:12:45;;;;;;;28.33;14.98;;;25.80;2201.60;;;;;;4989997;28;20464;-71
2022/01/18 06:15:11;;;;;;;28.27;13.65;;;25.80;2201.60;;;;;;5003538;28;20085;-71
2022/01/18 06:17:38;;;;;;;37.83;16.95;;;25.70;2201.60;;;;;;5009387;28;20503;-71
2022/01/18 06:20:06;;;;;;;34.03;15.75;;;25.70;2201.60;;;;;;5009795;28;20030;-71
2022/01/18 06:22:31;;;;;;;36.75;20.23;;;25.70;2201.60;;;;;;4993035;28;20101;-71
2022/01/18 06:24:57;;;;;;;34.25;15.43;;;25.60;2201.60;;;;;;5006121;28;20025;-71
2022/01/18 06:27:23;;;;;;;29.27;13.10;;;25.60;2201.60;;;;;;5010522;28;20057;-71
2022/01/18 06:29:49;;;;;;;34.22;13.70;;;25.60;2201.60;;;;;;5001092;28;20030;-71
2022/01/18 06:32:14;;;;;;;33.78;15.70;;;25.60;2201.60;;;;;;5007015;28;20113;-71
2022/01/18 06:34:41;;;;;;;27.15;14.63;;;25.60;2201.60;;;;;;5010038;28;20065;-71
2022/01/18 06:37:07;;;;;;;38.78;14.93;;;25.60;2201.60;;;;;;5011225;28;20033;-71
2022/01/18 06:39:33;;;;;;;33.08;15.60;;;25.60;2201.60;;;;;;4992123;28;20084;-71
2022/01/18 06:41:59;;;;;;;27.73;15.10;;;25.60;2201.60;;;;;;4991770;28;20105;-71
2022/01/18 06:44:25;;;;;;;29.27;12.65;;;25.70;2201.60;;;;;;4991719;28;20485;-71
2022/01/18 06:46:52;;;;;;;25.30;11.05;;;25.70;2201.60;;;;;;4992263;28;20033;-71
2022/01/18 06:49:18;;;;;;;28.08;12.73;;;25.70;2201.60;;;;;;5010762;28;20037;-72
2022/01/18 06:51:43;;;;;;;32.97;14.25;;;25.70;2201.60;;;;;;5010224;28;20037;-71
2022/01/18 06:54:16;;;;;;;42.35;14.10;;;25.80;2201.60;;;;;;4992895;28;20084;-72
2022/01/18 06:56:45;;;;;;;26.42;13.60;;;25.80;2201.60;;;;;;4986311;28;20767;-71
2022/01/18 06:59:10;;;;;;;22.77;11.57;;;25.60;2201.60;;;;;;4988196;28;20053;-71
2022/01/18 07:01:36;;;;;;;27.88;13.30;;;25.80;2201.60;;;;;;4992192;28;20042;-71
2022/01/18 07:04:02;;;;;;;25.38;12.57;;;25.80;2201.60;;;;;;5007925;28;20045;-71
2022/01/18 07:06:28;;;;;;;19.45;10.02;;;25.80;2201.60;;;;;;5009609;28;20042;-71
2022/01/18 07:08:54;;;;;;;34.10;14.25;;;25.90;2201.60;;;;;;5007934;28;20041;-72
2022/01/18 07:11:20;;;;;;;23.90;11.05;;;25.90;2201.60;;;;;;5007438;28;20058;-71
2022/01/18 07:13:46;;;;;;;22.17;11.70;;;25.90;2201.60;;;;;;5006803;28;20495;-71
2022/01/18 07:16:12;;;;;;;29.30;12.32;;;26.00;2201.60;;;;;;4991320;28;20177;-71
2022/01/18 07:18:40;;;;;;;25.65;13.40;;;26.00;2201.60;;;;;;4993571;28;20061;-71
2022/01/18 07:21:05;;;;;;;32.35;15.98;;;26.00;2201.60;;;;;;4996371;28;20061;-71
2022/01/18 07:23:31;;;;;;;23.63;12.70;;;26.10;2201.60;;;;;;5010246;28;20084;-71
2022/01/18 07:25:57;;;;;;;20.00;10.27;;;26.10;2201.60;;;;;;5008710;28;20062;-71
2022/01/18 07:28:23;;;;;;;23.27;10.60;;;26.20;2201.60;;;;;;5010110;28;20101;-71
2022/01/18 07:30:49;;;;;;;20.35;7.90;;;26.20;2201.60;;;;;;5009667;28;20037;-72
2022/01/18 07:33:16;;;;;;;18.02;8.68;;;26.30;2201.60;;;;;;5009205;28;20030;-72
2022/01/18 07:35:43;;;;;;;15.32;6.97;;;26.40;2201.60;;;;;;5009203;28;20064;-72
2022/01/18 07:38:12;;;;;;;13.68;6.10;;;26.40;2201.60;;;;;;5012238;28;20034;-72
2022/01/18 07:40:40;;;;;;;13.70;7.25;;;26.50;2201.60;;;;;;5010725;28;20385;-72
2022/01/18 07:43:05;;;;;;;15.65;8.02;;;26.50;2201.60;;;;;;4993724;28;20030;-72
2022/01/18 07:45:31;;;;;;;11.65;7.60;;;51.20;2227.20;;;;;;5007178;28;20385;-72
2022/01/18 07:47:58;;;;;;;13.25;7.18;;;51.40;2227.20;;;;;;5010851;28;20057;-72
2022/01/18 07:50:24;;;;;;;18.08;8.05;;;51.30;2227.20;;;;;;5008873;28;20507;-72
2022/01/18 07:52:50;;;;;;;15.75;8.70;;;51.40;2227.20;;;;;;5003222;28;20034;-72
2022/01/18 07:55:16;;;;;;;18.23;5.97;;;51.40;2227.20;;;;;;4986182;28;20047;-71
2022/01/18 07:57:43;;;;;;;12.23;7.60;;;51.60;2227.20;;;;;;4987054;28;20047;-72
2022/01/18 08:00:14;;;;;;;13.88;6.68;;;51.60;2227.20;;;;;;4976175;28;20035;-72
2022/01/18 08:02:41;;;;;;;14.48;6.15;;;51.60;2227.20;;;;;;4978113;28;20052;-72
2022/01/18 08:05:08;;;;;;;16.17;6.70;;;51.70;2227.20;;;;;;4982403;28;20093;-72
2022/01/18 08:07:34;;;;;;;14.52;7.05;;;51.80;2227.20;;;;;;4987619;28;20113;-72
2022/01/18 08:10:00;;;;;;;18.17;7.15;;;51.80;2227.20;;;;;;4980883;28;20106;-72
2022/01/18 08:12:26;;;;;;;16.48;6.03;;;51.90;2227.20;;;;;;4987991;28;20034;-72
2022/01/18 08:14:59;;;;;;;13.70;5.75;;;51.90;2227.20;;;;;;4984347;28;20502;-72
2022/01/18 08:17:25;;;;;;;12.80;6.18;;;52.00;2227.20;;;;;;4984004;28;20035;-72
2022/01/18 08:19:50;;;;;;;19.10;7.25;;;52.10;2227.20;;;;;;4984678;28;20034;-72
2022/01/18 08:22:16;;;;;;;11.38;6.20;;;76.80;2227.20;;;;;;4985422;28;20098;-72
2022/01/18 08:24:42;;;;;;;15.27;5.95;;;76.80;2227.20;;;;;;4986436;28;20038;-72
2022/01/18 08:27:11;;;;;;;10.05;5.88;;;76.90;2227.20;;;;;;4987891;28;20141;-72
2022/01/18 08:29:37;;;;;;;12.77;5.97;;;77.00;2227.20;;;;;;4990467;28;20066;-72
2022/01/18 08:32:05;;;;;;;18.30;6.35;;;77.00;2227.20;;;;;;4982147;28;20034;-72
2022/01/18 08:34:30;;;;;;;15.88;5.72;;;77.10;2227.20;;;;;;4983434;28;20053;-73
2022/01/18 08:36:56;;;;;;;14.27;6.10;;;77.10;2227.20;;;;;;4982046;28;20485;-72
2022/01/18 08:39:22;;;;;;;12.18;5.10;;;77.20;2227.20;;;;;;4980785;28;20529;-72
2022/01/18 08:41:49;;;;;;;20.38;8.32;;;77.20;2227.20;;;;;;4990446;28;20494;-72
2022/01/18 08:44:15;;;;;;;19.38;6.60;;;77.20;2227.20;;;;;;4989174;28;20066;-73
2022/01/18 08:46:41;;;;;;;21.17;7.80;;;77.30;2227.20;;;;;;4984453;28;20039;-72
2022/01/18 08:49:07;;;;;;;11.35;5.97;;;77.30;2227.20;;;;;;4988357;28;20058;-72
2022/01/18 08:51:33;;;;;;;13.30;6.38;;;77.30;2227.20;;;;;;4989720;28;20072;-71
2022/01/18 08:54:00;;;;;;;15.70;7.85;;;77.40;2227.20;;;;;;4990493;28;20488;-72
2022/01/18 08:56:26;;;;;;;14.60;8.10;;;77.50;2227.20;;;;;;5003544;28;20103;-72
2022/01/18 08:58:52;;;;;;;16.55;5.82;;;77.60;2227.20;;;;;;4991426;28;20046;-71
2022/01/18 09:01:18;;;;;;;13.38;7.75;;;77.70;2227.20;;;;;;4988895;28;20694;-73
2022/01/18 09:03:44;;;;;;;13.48;6.18;;;102.40;2227.20;;;;;;5011221;28;20491;-72
2022/01/18 09:06:16;;;;;;;13.77;7.00;;;102.50;2227.20;;;;;;5011589;28;20516;-72
2022/01/18 09:08:42;;;;;;;8.65;5.15;;;102.60;2227.20;;;;;;5009331;28;20036;-71
2022/01/18 09:11:12;;;;;;;13.10;7.45;;;102.80;2227.20;;;;;;5009000;28;20030;-72
2022/01/18 09:13:39;;;;;;;13.43;6.30;;;102.90;2227.20;;;;;;4991733;28;20394;-73
2022/01/18 09:16:06;;;;;;;17.77;7.75;;;102.90;2227.20;;;;;;4994336;28;20408;-73
2022/01/18 09:18:35;;;;;;;13.40;6.55;;;103.20;2227.20;;;;;;4988589;28;20034;-72
2022/01/18 09:21:01;;;;;;;14.23;6.55;;;128.10;2252.80;;;;;;4991473;28;20045;-73
2022/01/18 09:23:27;;;;;;;10.00;5.47;;;128.20;2252.80;;;;;;5008511;28;20037;-72
2022/01/18 09:25:52;;;;;;;14.48;6.03;;;128.30;2252.80;;;;;;5007510;28;20110;-72
2022/01/18 09:28:18;;;;;;;16.42;6.63;;;128.40;2252.80;;;;;;4992911;28;20184;-72
2022/01/18 09:30:44;;;;;;;11.65;4.97;;;128.30;2252.80;;;;;;4994457;28;20503;-71
2022/01/18 09:33:10;;;;;;;13.20;6.80;;;128.20;2252.80;;;;;;4994355;28;20045;-71
2022/01/18 09:35:37;;;;;;;9.88;5.88;;;128.40;2252.80;;;;;;5009333;28;20041;-72
2022/01/18 09:38:04;;;;;;;11.52;5.90;;;128.40;2252.80;;;;;;4994612;28;20740;-72
2022/01/18 09:40:33;;;;;;;15.82;6.22;;;128.50;2252.80;;;;;;5006667;28;20045;-72
2022/01/18 09:43:01;;;;;;;16.45;6.53;;;128.60;2252.80;;;;;;4995003;28;20037;-71
2022/01/18 09:45:28;;;;;;;9.90;5.85;;;153.70;2252.80;;;;;;5004960;28;20053;-72
2022/01/18 09:47:56;;;;;;;11.75;6.22;;;153.90;2252.80;;;;;;5003027;28;20038;-72
2022/01/18 09:50:29;;;;;;;20.17;7.22;;;153.70;2252.80;;;;;;5008210;28;20037;-72
2022/01/18 09:52:56;;;;;;;11.68;5.78;;;153.80;2252.80;;;;;;4995491;28;20048;-72
2022/01/18 09:55:25;;;;;;;12.40;6.88;;;154.10;2252.80;;;;;;5007043;28;20449;-72
2022/01/18 09:57:52;;;;;;;10.98;6.25;;;154.50;2252.80;;;;;;4992252;28;20108;-72
2022/01/18 10:00:20;;;;;;;14.30;6.88;;;154.50;2252.80;;;;;;4988025;28;20034;-72
2022/01/18 10:02:47;;;;;;;14.73;6.32;;;154.40;2252.80;;;;;;4992645;28;20389;-72
2022/01/18 10:05:23;;;;;;;18.02;7.05;;;154.40;2252.80;;;;;;5010879;28;20040;-72
2022/01/18 10:08:00;;;;;;;20.42;8.18;;;154.50;2252.80;;;;;;4993755;28;20034;-73
2022/01/18 10:10:39;;;;;;;14.27;6.43;;;179.30;2252.80;;;;;;5003043;28;20038;-73
2022/01/18 10:13:06;;;;;;;12.40;5.93;;;179.20;2252.80;;;;;;4993745;28;20026;-74
2022/01/18 10:15:32;;;;;;;21.13;5.90;;;179.20;2252.80;;;;;;5006965;28;20026;-74
2022/01/18 10:18:06;;;;;;;17.10;6.72;;;179.60;2252.80;;;;;;5003943;28;20026;-74
2022/01/18 10:20:32;;;;;;;14.10;6.93;;;179.70;2252.80;;;;;;4991866;28;20092;-74
2022/01/18 10:23:00;;;;;;;14.48;8.18;;;180.00;2252.80;;;;;;4994627;28;20045;-74
2022/01/18 10:25:28;;;;;;;24.75;7.97;;;180.00;2252.80;;;;;;4992860;28;20054;-74
2022/01/18 10:27:55;;;;;;;25.63;7.40;;;179.80;2252.80;;;;;;5002432;28;20091;-73
2022/01/18 10:30:37;;;;;;;15.57;6.43;;;179.90;2252.80;;;;;;5009897;28;20026;-74
2022/01/18 10:33:11;;;;;;;16.38;6.47;;;179.90;2252.80;;;;;;4993216;28;20033;-73
2022/01/18 10:36:02;;;;;;;15.32;6.85;;;204.80;2252.80;;;;;;5002477;28;21394;-73
2022/01/18 10:38:28;;;;;;;15.30;5.80;;;205.00;2252.80;;;;;;4986955;28;20046;-73
2022/01/18 10:40:55;;;;;;;13.13;6.63;;;205.20;2252.80;;;;;;4991362;28;20045;-73
2022/01/18 10:43:33;;;;;;;15.00;7.00;;;205.00;2252.80;;;;;;5006355;28;20405;-73
2022/01/18 10:46:15;;;;;;;21.17;7.82;;;204.90;2252.80;;;;;;5004340;28;20037;-73
2022/01/18 10:48:49;;;;;;;14.70;6.10;;;205.10;2252.80;;;;;;5009777;28;20096;-73
2022/01/18 10:51:33;;;;;;;14.73;7.20;;;205.30;2252.80;;;;;;5007296;28;20084;-73
2022/01/18 10:54:01;;;;;;;12.18;7.03;;;205.40;2252.80;;;;;;5005649;28;20040;-73
2022/01/18 10:56:37;;;;;;;11.18;5.65;;;205.60;2252.80;;;;;;5007221;28;20053;-73
2022/01/18 10:59:03;;;;;;;18.05;6.70;;;205.20;2252.80;;;;;;5009062;28;20030;-73
2022/01/18 11:01:29;;;;;;;15.25;5.97;;;205.50;2252.80;;;;;;4991565;28;20465;-73
2022/01/18 11:04:11;;;;;;;10.93;6.22;;;205.40;2252.80;;;;;;4992593;28;20038;-74
2022/01/18 11:06:39;;;;;;;11.23;5.38;;;205.70;2252.80;;;;;;5005956;28;20096;-74
2022/01/18 11:09:12;;;;;;;19.75;5.97;;;205.70;2252.80;;;;;;4992517;28;20030;-76
2022/01/18 11:11:45;;;;;;;11.68;5.22;;;230.50;2252.80;;;;;;4991743;28;20030;-73
2022/01/18 11:14:16;;;;;;;14.93;6.75;;;230.40;2252.80;;;;;;5004478;28;20428;-73
2022/01/18 11:16:44;;;;;;;10.43;6.03;;;205.60;2252.80;;;;;;4989463;28;20081;-73
2022/01/18 11:21:48;;;;;;;11.38;5.15;;;230.40;2252.80;;;;;;5005335;28;20128;-72
2022/01/18 11:24:15;;;;;;;17.67;7.78;;;230.60;2252.80;;;;;;4989831;28;20073;-73
2022/01/18 11:26:43;;;;;;;12.20;5.50;;;230.60;2252.80;;;;;;5009513;28;20053;-72
2022/01/18 11:29:11;;;;;;;14.80;6.93;;;231.10;2201.60;;;;;;4992571;28;20088;-73
2022/01/18 11:31:38;;;;;;;12.05;6.15;;;230.80;2252.80;;;;;;5005381;28;20026;-72
2022/01/18 11:34:07;;;;;;;14.05;7.15;;;230.50;2252.80;;;;;;5007586;28;20029;-70
2022/01/18 11:36:39;;;;;;;20.42;9.90;;;230.90;2252.80;;;;;;5005713;28;20038;-73
2022/01/18 11:39:08;;;;;;;15.93;6.18;;;231.10;2252.80;;;;;;5008584;28;20065;-72
2022/01/18 11:41:35;;;;;;;17.08;6.70;;;230.60;2252.80;;;;;;4998363;28;20038;-72
2022/01/18 11:44:15;;;;;;;15.38;7.55;;;230.50;2252.80;;;;;;5005774;28;20033;-72
2022/01/18 11:46:55;;;;;;;16.63;6.72;;;230.80;2252.80;;;;;;5004121;28;20436;-73
2022/01/18 11:49:30;;;;;;;13.48;5.95;;;230.80;2252.80;;;;;;5003456;28;20048;-72
2022/01/18 11:52:04;;;;;;;13.88;6.63;;;231.00;2227.20;;;;;;4990865;28;20037;-72
2022/01/18 11:57:27;;;;;;;13.55;5.47;;;231.30;2252.80;;;;;;5004933;28;20121;-72
2022/01/18 11:59:55;;;;;;;16.70;5.93;;;231.20;2073.60;;;;;;4990159;28;20042;-72
2022/01/18 12:02:30;;;;;;;13.48;6.03;;;230.90;2176.00;;;;;;5006919;28;20062;-72
2022/01/18 12:04:58;;;;;;;19.80;6.60;;;230.90;2201.60;;;;;;5012761;28;20100;-73
2022/01/18 12:07:36;;;;;;;21.52;8.15;;;230.90;2176.00;;;;;;5012700;28;20030;-73
2022/01/18 12:10:07;;;;;;;29.52;9.43;;;230.90;2252.80;;;;;;5005639;28;20062;-72
2022/01/18 12:12:42;;;;;;;14.98;5.95;;;231.00;2227.20;;;;;;5003442;28;20029;-72
2022/01/18 12:15:20;;;;;;;10.93;5.93;;;231.10;2099.20;;;;;;5010630;28;20033;-72
2022/01/18 12:17:55;;;;;;;17.48;5.82;;;256.10;2022.40;;;;;;5008722;28;20033;-72
2022/01/18 12:20:43;;;;;;;15.68;5.20;;;256.00;1996.80;;;;;;4996110;28;20041;-72
2022/01/18 12:23:19;;;;;;;12.10;5.72;;;231.20;2124.80;;;;;;5010446;28;20058;-72
2022/01/18 12:26:14;;;;;;;14.93;6.45;;;231.30;2048.00;;;;;;4994054;28;20049;-72
2022/01/18 12:34:29;;;;;;;13.23;6.10;;;281.60;1868.80;;;;;;5014478;28;20026;-72
2022/01/18 12:39:53;;;;;;;18.80;7.35;;;256.20;1996.80;;;;;;5008475;28;20399;-72
2022/01/18 12:44:20;;;;;;;;;;;231.00;2201.60;;;;;;5014599;28;20045;-72
2022/01/18 12:45:07;;;;;;;21.85;10.90;;;230.90;2124.80;;;;;;5014078;28;19973;-73
2022/01/18 12:47:35;;;;;;;18.30;8.93;;;230.50;2227.20;;;;;;4996176;28;20409;-73
2022/01/18 12:50:06;;;;;;;15.80;7.38;;;205.50;2252.80;;;;;;4998245;28;20054;-73
2022/01/18 12:52:49;;;;;;;14.10;5.88;;;230.60;2201.60;;;;;;5003100;28;20037;-74
2022/01/18 12:55:28;;;;;;;11.80;6.30;;;230.80;2176.00;;;;;;4995944;28;20050;-73
2022/01/18 12:58:05;;;;;;;16.73;7.22;;;230.90;2176.00;;;;;;5013982;28;20773;-73
2022/01/18 13:00:47;;;;;;;15.65;7.75;;;205.10;2252.80;;;;;;4996152;28;20034;-73
2022/01/18 13:03:18;;;;;;;11.68;5.18;;;205.50;2252.80;;;;;;4996098;28;20041;-73
2022/01/18 13:05:45;;;;;;;15.05;6.50;;;230.70;2227.20;;;;;;5013419;28;20040;-73
2022/01/18 13:08:13;;;;;;;15.85;6.68;;;231.00;2227.20;;;;;;5012819;28;20025;-73
2022/01/18 13:10:47;;;;;;;13.77;5.30;;;256.00;2048.00;;;;;;4995123;28;20030;-73
2022/01/18 13:13:16;;;;;;;13.05;5.70;;;231.30;1971.20;;;;;;4995204;28;20048;-73
2022/01/18 13:26:43;;;;;;;23.20;6.78;;;230.80;2099.20;;;;;;5010196;28;20504;-73
2022/01/18 13:29:24;;;;;;;13.10;6.75;;;231.00;2124.80;;;;;;4992430;28;20034;-73
2022/01/18 13:32:14;;;;;;;15.07;6.43;;;231.00;2150.40;;;;;;4991508;28;20060;-73
2022/01/18 13:34:43;;;;;;;12.43;5.82;;;230.90;2201.60;;;;;;4991386;28;20045;-78
2022/01/18 13:37:14;;;;;;;20.40;7.78;;;230.50;2252.80;;;;;;4992389;28;20413;-73
2022/01/18 13:40:02;;;;;;;13.95;6.07;;;230.40;2252.80;;;;;;4993134;28;20041;-73
2022/01/18 13:42:35;;;;;;;19.17;6.72;;;205.70;2201.60;;;;;;5008378;28;20036;-73
2022/01/18 13:45:17;;;;;;;14.45;8.55;;;205.00;2252.80;;;;;;5008477;28;20059;-73
2022/01/18 13:47:50;;;;;;;11.07;5.90;;;204.80;2252.80;;;;;;4995147;28;20034;-73
2022/01/18 13:50:40;;;;;;;16.45;7.00;;;179.90;2252.80;;;;;;5010509;28;20516;-73
2022/01/18 13:53:17;;;;;;;19.13;7.60;;;179.80;2252.80;;;;;;5012992;28;20045;-75
2022/01/18 13:55:48;;;;;;;19.55;8.75;;;180.00;2252.80;;;;;;4994809;28;20045;-74
2022/01/18 13:58:20;;;;;;;25.83;9.15;;;180.10;2252.80;;;;;;4995278;28;20405;-75
2022/01/18 14:00:46;;;;;;;23.50;11.70;;;180.10;2252.80;;;;;;4995179;28;20038;-72
2022/01/18 14:03:30;;;;;;;22.52;10.00;;;179.90;2252.80;;;;;;4994833;28;20041;-74